Time;durP1;ratioP1;P1;durP2;ratioP2;P2;SDS_P1;SDS_P2;PMS_P1;PMS_P2;Temp;Humidity;BMP_temperature;BMP_pressure;BME280_temperature;BME280_humidity;BME280_pressure;Samples;Min_cycle;Max_cycle;Signal;HPM_P1;HPM_P2
2022/09/14 00:00:56;;;;;;;;;;;15.30;99.90;;;;;;5066224;28;19995;-65
2022/09/14 00:03:21;;;;;;;;;;;15.30;99.90;;;;;;5061113;28;20050;-65
2022/09/14 00:05:47;;;;;;;;;;;15.30;99.90;;;;;;5065449;28;19917;-65
2022/09/14 00:08:13;;;;;;;;;;;15.40;99.90;;;;;;5069422;28;20371;-65
2022/09/14 00:10:42;;;;;;;;;;;15.30;99.90;;;;;;5071735;28;20426;-65
2022/09/14 00:13:08;;;;;;;;;;;15.40;99.90;;;;;;5060522;28;19924;-66
2022/09/14 00:15:38;;;;;;;;;;;15.40;99.90;;;;;;5072749;28;19912;-65
2022/09/14 00:18:05;;;;;;;;;;;15.40;99.90;;;;;;5049901;28;20004;-65
2022/09/14 00:20:30;;;;;;;;;;;15.40;99.90;;;;;;5065070;28;19920;-65
2022/09/14 00:22:56;;;;;;;;;;;15.40;99.90;;;;;;5065330;28;20291;-65
2022/09/14 00:25:22;;;;;;;;;;;15.30;99.90;;;;;;5066789;28;19925;-64
2022/09/14 00:27:48;;;;;;;;;;;15.30;99.90;;;;;;5065068;28;19996;-65
2022/09/14 00:30:13;;;;;;;;;;;15.40;99.90;;;;;;5064367;28;19913;-65
2022/09/14 00:32:39;;;;;;;;;;;15.30;99.90;;;;;;5063313;28;20399;-65
2022/09/14 00:35:04;;;;;;;;;;;15.30;99.90;;;;;;5066271;28;20288;-64
2022/09/14 00:37:30;;;;;;;;;;;15.30;99.90;;;;;;5066340;28;19912;-64
2022/09/14 00:39:56;;;;;;;;;;;15.30;99.90;;;;;;5067192;28;19921;-64
2022/09/14 00:42:21;;;;;;;;;;;15.30;99.90;;;;;;5067005;28;20333;-64
2022/09/14 00:44:47;;;;;;;;;;;15.40;99.90;;;;;;5068493;28;19916;-64
2022/09/14 00:47:13;;;;;;;;;;;15.40;99.90;;;;;;5063347;28;19936;-64
2022/09/14 00:49:40;;;;;;;;;;;15.40;99.90;;;;;;5067752;28;19947;-64
2022/09/14 00:52:22;;;;;;;;;;;15.40;99.90;;;;;;5067246;28;20325;-65
2022/09/14 00:54:49;;;;;;;;;;;15.30;99.90;;;;;;5066598;28;19917;-64
2022/09/14 00:57:16;;;;;;;;;;;15.30;99.90;;;;;;5066959;28;20279;-64
2022/09/14 00:59:42;;;;;;;;;;;15.30;99.90;;;;;;5065330;28;19952;-64
2022/09/14 01:02:09;;;;;;;;;;;15.40;99.90;;;;;;5067307;28;20093;-64
2022/09/14 01:04:35;;;;;;;;;;;15.40;99.90;;;;;;5065830;28;20283;-65
2022/09/14 01:07:01;;;;;;;;;;;15.40;99.90;;;;;;5065424;28;19924;-65
2022/09/14 01:09:43;;;;;;;;;;;15.50;99.90;;;;;;5068133;28;19928;-64
2022/09/14 01:12:09;;;;;;;;;;;15.50;99.90;;;;;;5066320;28;19913;-64
2022/09/14 01:14:35;;;;;;;;;;;15.50;99.90;;;;;;5066774;28;19919;-64
2022/09/14 01:17:01;;;;;;;;;;;15.50;99.90;;;;;;5066581;28;19916;-64
2022/09/14 01:19:52;;;;;;;;;;;15.50;99.90;;;;;;5066704;28;20148;-64
2022/09/14 01:22:22;;;;;;;;;;;15.50;99.90;;;;;;5021884;28;20421;-64
2022/09/14 01:24:51;;;;;;;;;;;15.50;99.90;;;;;;5068025;28;19970;-64
2022/09/14 01:27:22;;;;;;;;;;;15.40;99.90;;;;;;5065453;28;19924;-65
2022/09/14 01:30:08;;;;;;;;;;;15.40;99.90;;;;;;5067507;28;19943;-64
2022/09/14 01:32:37;;;;;;;;;;;15.50;99.90;;;;;;5061975;28;19912;-64
2022/09/14 01:35:06;;;;;;;;;;;15.50;99.90;;;;;;5065857;28;19920;-64
2022/09/14 01:37:34;;;;;;;;;;;15.50;99.90;;;;;;5064788;28;19912;-64
2022/09/14 01:40:03;;;;;;;;;;;15.50;99.90;;;;;;5062735;28;20419;-64
2022/09/14 01:42:30;;;;;;;;;;;15.50;99.90;;;;;;5065028;28;20044;-64
2022/09/14 01:44:57;;;;;;;;;;;15.50;99.90;;;;;;5066786;28;19966;-64
2022/09/14 01:47:27;;;;;;;;;;;15.50;99.90;;;;;;5068105;28;20373;-64
2022/09/14 01:50:00;;;;;;;;;;;15.60;99.90;;;;;;5068255;28;19946;-63
2022/09/14 01:52:29;;;;;;;;;;;15.60;99.90;;;;;;5052399;28;19913;-64
2022/09/14 01:54:58;;;;;;;;;;;15.60;99.90;;;;;;5067568;28;19913;-64
2022/09/14 01:57:43;;;;;;;;;;;15.60;99.90;;;;;;5071653;28;19940;-65
2022/09/14 02:00:10;;;;;;;;;;;15.60;99.90;;;;;;5069098;28;19966;-64
2022/09/14 02:02:38;;;;;;;;;;;15.70;99.90;;;;;;5070356;28;20311;-64
2022/09/14 02:05:13;;;;;;;;;;;15.60;99.90;;;;;;5067730;28;19958;-65
2022/09/14 02:07:39;;;;;;;;;;;15.60;99.90;;;;;;5065922;28;19921;-65
2022/09/14 02:10:08;;;;;;;;;;;15.70;99.90;;;;;;5071548;28;19931;-65
2022/09/14 02:12:33;;;;;;;;;;;15.70;99.90;;;;;;5071093;28;19913;-65
2022/09/14 02:14:59;;;;;;;;;;;15.70;99.90;;;;;;5054738;28;19919;-65
2022/09/14 02:17:25;;;;;;;;;;;15.70;99.90;;;;;;5071523;28;20682;-64
2022/09/14 02:19:58;;;;;;;;;;;15.70;99.90;;;;;;5066159;28;19959;-65
2022/09/14 02:22:25;;;;;;;;;;;15.70;99.90;;;;;;5070278;28;20322;-65
2022/09/14 02:24:51;;;;;;;;;;;15.70;99.90;;;;;;5065970;28;19989;-65
2022/09/14 02:27:16;;;;;;;;;;;15.70;99.90;;;;;;5050949;28;20371;-65
2022/09/14 02:29:42;;;;;;;;;;;15.60;99.90;;;;;;5071648;28;20389;-65
2022/09/14 02:32:26;;;;;;;;;;;15.60;99.90;;;;;;5067930;28;20306;-65
2022/09/14 02:35:01;;;;;;;;;;;15.60;99.90;;;;;;5050127;28;19952;-64
2022/09/14 02:37:30;;;;;;;;;;;15.60;99.90;;;;;;5050478;28;19920;-65
2022/09/14 02:40:20;;;;;;;;;;;15.60;99.90;;;;;;5069122;28;19999;-64
2022/09/14 02:42:58;;;;;;;;;;;15.60;99.90;;;;;;5067367;28;19913;-65
2022/09/14 02:45:27;;;;;;;;;;;15.60;99.90;;;;;;5070469;28;19913;-64
2022/09/14 02:47:58;;;;;;;;;;;15.60;99.90;;;;;;5067959;28;19919;-64
2022/09/14 02:50:44;;;;;;;;;;;15.70;99.90;;;;;;5069811;28;20294;-64
2022/09/14 02:53:16;;;;;;;;;;;15.60;99.90;;;;;;5068750;28;19913;-64
2022/09/14 02:55:48;;;;;;;;;;;15.60;99.90;;;;;;5072119;28;19982;-64
2022/09/14 02:58:14;;;;;;;;;;;15.60;99.90;;;;;;5068586;28;20049;-64
2022/09/14 03:00:41;;;;;;;;;;;15.70;99.90;;;;;;5068754;28;19982;-64
2022/09/14 03:03:07;;;;;;;;;;;15.60;99.90;;;;;;5069464;28;19921;-64
2022/09/14 03:05:33;;;;;;;;;;;15.60;99.90;;;;;;5068369;28;19912;-65
2022/09/14 03:07:59;;;;;;;;;;;15.60;99.90;;;;;;5065550;28;20387;-64
2022/09/14 03:10:25;;;;;;;;;;;15.60;99.90;;;;;;5069247;28;19917;-65
2022/09/14 03:12:52;;;;;;;;;;;15.60;99.90;;;;;;5066684;28;20240;-65
2022/09/14 03:15:18;;;;;;;;;;;15.60;99.90;;;;;;5070579;28;19966;-64
2022/09/14 03:17:44;;;;;;;;;;;15.70;99.90;;;;;;5068372;28;19920;-64
2022/09/14 03:20:10;;;;;;;;;;;15.70;99.90;;;;;;5050074;28;19916;-65
2022/09/14 03:22:35;;;;;;;;;;;15.70;99.90;;;;;;5069362;28;19919;-64
2022/09/14 03:25:01;;;;;;;;;;;15.70;99.90;;;;;;5066611;28;20418;-65
2022/09/14 03:27:26;;;;;;;;;;;15.70;99.90;;;;;;5068650;28;20481;-65
2022/09/14 03:29:52;;;;;;;;;;;15.70;99.90;;;;;;5065120;28;20331;-65
2022/09/14 03:32:17;;;;;;;;;;;15.70;99.90;;;;;;5068046;28;20345;-65
2022/09/14 03:34:43;;;;;;;;;;;15.70;99.90;;;;;;5048800;28;19939;-65
2022/09/14 03:37:08;;;;;;;;;;;15.60;99.90;;;;;;5068727;28;19952;-64
2022/09/14 03:39:34;;;;;;;;;;;15.60;99.90;;;;;;5066684;28;19960;-65
2022/09/14 03:41:59;;;;;;;;;;;15.70;99.90;;;;;;5068031;28;20323;-64
2022/09/14 03:44:25;;;;;;;;;;;15.70;99.90;;;;;;5067214;28;20003;-65
2022/09/14 03:46:50;;;;;;;;;;;15.80;99.90;;;;;;5068911;28;19912;-65
2022/09/14 03:49:16;;;;;;;;;;;15.70;99.90;;;;;;5067855;28;19970;-65
2022/09/14 03:51:41;;;;;;;;;;;15.70;99.90;;;;;;5069295;28;20425;-65
2022/09/14 03:54:07;;;;;;;;;;;15.80;99.90;;;;;;5065438;28;19916;-65
2022/09/14 03:56:32;;;;;;;;;;;15.70;99.90;;;;;;5068067;28;20360;-65
2022/09/14 03:58:58;;;;;;;;;;;15.70;99.90;;;;;;5067857;28;19922;-65
2022/09/14 04:01:24;;;;;;;;;;;15.70;99.90;;;;;;5064652;28;19916;-65
2022/09/14 04:03:49;;;;;;;;;;;15.70;99.90;;;;;;5044282;28;19917;-66
2022/09/14 04:06:16;;;;;;;;;;;15.80;99.90;;;;;;5067252;28;19912;-66
2022/09/14 04:08:42;;;;;;;;;;;15.80;99.90;;;;;;5061954;28;19931;-65
2022/09/14 04:11:12;;;;;;;;;;;15.70;99.90;;;;;;5067388;28;20282;-65
2022/09/14 04:13:38;;;;;;;;;;;15.80;99.90;;;;;;5066316;28;19923;-65
2022/09/14 04:16:04;;;;;;;;;;;15.80;99.90;;;;;;5063515;28;20457;-65
2022/09/14 04:18:30;;;;;;;;;;;15.90;99.90;;;;;;5064438;28;20317;-64
2022/09/14 04:20:59;;;;;;;;;;;16.00;99.90;;;;;;5062690;28;19913;-65
2022/09/14 04:23:25;;;;;;;;;;;16.00;99.90;;;;;;5063860;28;19970;-66
2022/09/14 04:25:51;;;;;;;;;;;16.00;99.90;;;;;;5064425;28;20003;-66
2022/09/14 04:28:17;;;;;;;;;;;15.90;99.90;;;;;;5064523;28;19974;-65
2022/09/14 04:30:42;;;;;;;;;;;15.90;99.90;;;;;;5064540;28;19913;-65
2022/09/14 04:33:08;;;;;;;;;;;15.80;99.90;;;;;;5064521;28;20432;-66
2022/09/14 04:35:33;;;;;;;;;;;15.80;99.90;;;;;;5063989;28;19916;-65
2022/09/14 04:37:59;;;;;;;;;;;15.90;99.90;;;;;;5066370;28;20386;-65
2022/09/14 04:40:27;;;;;;;;;;;15.90;99.90;;;;;;5066867;28;20386;-65
2022/09/14 04:42:53;;;;;;;;;;;15.90;99.90;;;;;;5067229;28;19913;-65
2022/09/14 04:45:18;;;;;;;;;;;15.90;99.90;;;;;;5067758;28;19920;-65
2022/09/14 04:47:44;;;;;;;;;;;15.90;99.90;;;;;;5063610;28;19920;-65
2022/09/14 04:50:09;;;;;;;;;;;15.90;99.90;;;;;;5062165;28;20011;-65
2022/09/14 04:52:35;;;;;;;;;;;16.00;99.90;;;;;;5065667;28;19912;-64
2022/09/14 04:55:01;;;;;;;;;;;16.00;99.90;;;;;;5065527;28;19916;-65
2022/09/14 04:57:26;;;;;;;;;;;16.00;99.90;;;;;;5068632;28;19912;-65
2022/09/14 04:59:52;;;;;;;;;;;16.00;99.90;;;;;;5062933;28;20007;-65
2022/09/14 05:02:17;;;;;;;;;;;16.00;99.90;;;;;;5067881;28;19912;-65
2022/09/14 05:04:43;;;;;;;;;;;15.90;99.90;;;;;;5066101;28;20359;-65
2022/09/14 05:07:08;;;;;;;;;;;15.90;99.90;;;;;;5065660;28;19921;-65
2022/09/14 05:09:34;;;;;;;;;;;15.90;99.90;;;;;;5062760;28;21249;-65
2022/09/14 05:11:59;;;;;;;;;;;15.90;99.90;;;;;;5065260;28;19912;-65
2022/09/14 05:14:25;;;;;;;;;;;15.80;99.90;;;;;;5064272;28;19912;-65
2022/09/14 05:16:50;;;;;;;;;;;15.70;99.90;;;;;;5050279;28;20347;-65
2022/09/14 05:19:17;;;;;;;;;;;15.80;99.90;;;;;;5066201;28;19913;-65
2022/09/14 05:21:43;;;;;;;;;;;15.80;99.90;;;;;;5070285;28;20367;-65
2022/09/14 05:24:13;;;;;;;;;;;15.80;99.90;;;;;;5070403;28;19915;-65
2022/09/14 05:26:39;;;;;;;;;;;15.80;99.90;;;;;;5066620;28;19917;-65
2022/09/14 05:29:04;;;;;;;;;;;15.80;99.90;;;;;;5069193;28;19920;-66
2022/09/14 05:31:33;;;;;;;;;;;15.80;99.90;;;;;;5069565;28;19916;-65
2022/09/14 05:33:58;;;;;;;;;;;15.80;99.90;;;;;;5070108;28;19919;-65
2022/09/14 05:36:24;;;;;;;;;;;15.80;99.90;;;;;;5068253;28;20003;-65
2022/09/14 05:38:50;;;;;;;;;;;15.80;99.90;;;;;;5069769;28;19921;-65
2022/09/14 05:41:16;;;;;;;;;;;15.90;99.90;;;;;;5070491;28;20427;-65
2022/09/14 05:43:42;;;;;;;;;;;15.90;99.90;;;;;;5071395;28;20020;-65
2022/09/14 05:46:12;;;;;;;;;;;15.80;99.90;;;;;;5069969;28;20359;-64
2022/09/14 05:48:38;;;;;;;;;;;15.80;99.90;;;;;;5072345;28;19920;-65
2022/09/14 05:51:09;;;;;;;;;;;15.70;99.90;;;;;;5074151;28;19916;-65
2022/09/14 05:53:35;;;;;;;;;;;15.70;99.90;;;;;;5073276;28;19918;-66
2022/09/14 05:56:03;;;;;;;;;;;15.70;99.90;;;;;;5053797;28;19999;-65
2022/09/14 05:58:29;;;;;;;;;;;15.60;99.90;;;;;;5074233;28;19913;-66
2022/09/14 06:00:54;;;;;;;;;;;15.60;99.90;;;;;;5073589;28;20450;-65
2022/09/14 06:03:20;;;;;;;;;;;15.60;99.90;;;;;;5072363;28;20264;-65
2022/09/14 06:05:45;;;;;;;;;;;15.60;99.90;;;;;;5068958;28;19963;-65
2022/09/14 06:08:11;;;;;;;;;;;15.60;99.90;;;;;;5069402;28;19921;-65
2022/09/14 06:10:37;;;;;;;;;;;15.50;99.90;;;;;;5063848;28;19913;-65
2022/09/14 06:13:02;;;;;;;;;;;15.60;99.90;;;;;;5065054;28;19964;-65
2022/09/14 06:15:28;;;;;;;;;;;15.70;99.90;;;;;;5053882;28;19966;-65
2022/09/14 06:17:53;;;;;;;;;;;15.70;99.90;;;;;;5068003;28;19965;-65
2022/09/14 06:20:19;;;;;;;;;;;15.60;99.90;;;;;;5049651;28;20011;-65
2022/09/14 06:22:44;;;;;;;;;;;15.60;99.90;;;;;;5069857;28;19919;-65
2022/09/14 06:25:10;;;;;;;;;;;15.60;99.90;;;;;;5067421;28;19912;-65
2022/09/14 06:27:36;;;;;;;;;;;15.60;99.90;;;;;;5069381;28;19934;-64
2022/09/14 06:30:02;;;;;;;;;;;15.60;99.90;;;;;;5071587;28;19996;-65
2022/09/14 06:32:28;;;;;;;;;;;15.50;99.90;;;;;;5050235;28;19938;-65
2022/09/14 06:34:54;;;;;;;;;;;15.50;99.90;;;;;;5064466;28;19919;-65
2022/09/14 06:37:19;;;;;;;;;;;15.60;99.90;;;;;;5061704;28;19912;-64
2022/09/14 06:39:45;;;;;;;;;;;15.60;99.90;;;;;;5067678;28;20160;-65
2022/09/14 06:42:10;;;;;;;;;;;15.60;99.90;;;;;;5064202;28;19935;-65
2022/09/14 06:44:36;;;;;;;;;;;15.60;99.90;;;;;;5068742;28;19962;-64
2022/09/14 06:47:02;;;;;;;;;;;15.50;99.90;;;;;;5068522;28;19967;-65
2022/09/14 06:49:28;;;;;;;;;;;15.50;99.90;;;;;;5066844;28;19924;-65
2022/09/14 06:51:55;;;;;;;;;;;15.50;99.90;;;;;;5062526;28;19947;-65
2022/09/14 06:54:21;;;;;;;;;;;15.50;99.90;;;;;;5050728;28;19924;-66
2022/09/14 06:56:46;;;;;;;;;;;15.40;99.90;;;;;;5060263;28;21057;-65
2022/09/14 06:59:14;;;;;;;;;;;15.50;99.90;;;;;;5039556;28;20455;-65
2022/09/14 07:01:40;;;;;;;;;;;15.40;99.90;;;;;;5058258;28;20401;-65
2022/09/14 07:04:06;;;;;;;;;;;15.60;99.90;;;;;;5064715;28;19912;-64
2022/09/14 07:06:39;;;;;;;;;;;15.60;99.90;;;;;;5065105;28;19943;-66
2022/09/14 07:09:04;;;;;;;;;;;15.50;99.90;;;;;;5040715;28;19921;-66
2022/09/14 07:11:30;;;;;;;;;;;15.40;99.90;;;;;;5060685;28;19913;-66
2022/09/14 07:14:00;;;;;;;;;;;15.40;99.90;;;;;;5063418;28;19947;-65
2022/09/14 07:16:26;;;;;;;;;;;15.50;99.90;;;;;;5068449;28;20107;-66
2022/09/14 07:18:52;;;;;;;;;;;15.60;99.90;;;;;;5063904;28;19993;-66
2022/09/14 07:21:20;;;;;;;;;;;15.70;99.90;;;;;;5065853;28;20019;-66
2022/09/14 07:23:46;;;;;;;;;;;15.60;99.90;;;;;;5068010;28;20009;-66
2022/09/14 07:26:13;;;;;;;;;;;15.60;99.90;;;;;;5066587;28;19916;-65
2022/09/14 07:28:39;;;;;;;;;;;15.60;99.90;;;;;;5068556;28;19920;-67
2022/09/14 07:31:12;;;;;;;;;;;15.50;99.90;;;;;;5066613;28;19935;-67
2022/09/14 07:33:38;;;;;;;;;;;15.50;99.90;;;;;;5068673;28;19912;-65
2022/09/14 07:36:04;;;;;;;;;;;15.50;99.90;;;;;;5064984;28;20073;-66
2022/09/14 07:38:30;;;;;;;;;;;15.50;99.90;;;;;;5066150;28;19932;-67
2022/09/14 07:40:58;;;;;;;;;;;15.60;99.90;;;;;;5063697;28;19924;-65
2022/09/14 07:43:24;;;;;;;;;;;15.50;99.90;;;;;;5072496;28;19913;-66
2022/09/14 07:45:49;;;;;;;;;;;15.50;99.90;;;;;;5071912;28;19920;-66
2022/09/14 07:48:15;;;;;;;;;;;15.60;99.90;;;;;;5072105;28;19928;-67
2022/09/14 07:50:40;;;;;;;;;;;15.60;99.90;;;;;;5072591;28;19909;-66
2022/09/14 07:53:06;;;;;;;;;;;15.70;99.90;;;;;;5067760;28;20159;-65
2022/09/14 07:55:32;;;;;;;;;;;15.80;99.90;;;;;;5069216;28;19916;-66
2022/09/14 07:57:58;;;;;;;;;;;15.90;99.90;;;;;;5054198;28;20042;-65
2022/09/14 08:00:24;;;;;;;;;;;15.70;99.90;;;;;;5070999;28;19916;-65
2022/09/14 08:02:54;;;;;;;;;;;15.80;99.90;;;;;;5067930;28;19956;-65
2022/09/14 08:05:20;;;;;;;;;;;16.00;99.90;;;;;;5066800;28;19912;-65
2022/09/14 08:07:45;;;;;;;;;;;16.10;99.90;;;;;;5041040;28;19982;-65
2022/09/14 08:10:11;;;;;;;;;;;16.20;99.90;;;;;;5066275;28;19924;-66
2022/09/14 08:12:36;;;;;;;;;;;16.30;99.90;;;;;;5066000;28;19916;-65
2022/09/14 08:15:03;;;;;;;;;;;16.20;99.90;;;;;;5042332;28;19959;-65
2022/09/14 08:17:28;;;;;;;;;;;16.20;99.90;;;;;;5067245;28;19952;-65
2022/09/14 08:19:54;;;;;;;;;;;16.30;99.90;;;;;;5067795;28;20306;-65
2022/09/14 08:22:20;;;;;;;;;;;16.40;99.90;;;;;;5065606;28;19916;-65
2022/09/14 08:24:46;;;;;;;;;;;16.40;99.90;;;;;;5067055;28;19970;-66
2022/09/14 08:27:11;;;;;;;;;;;16.30;99.90;;;;;;5048678;28;20011;-65
2022/09/14 08:29:38;;;;;;;;;;;16.40;99.90;;;;;;5064525;28;19921;-65
2022/09/14 08:32:04;;;;;;;;;;;16.40;99.90;;;;;;5066997;28;19919;-65
2022/09/14 08:34:29;;;;;;;;;;;16.50;99.90;;;;;;5066590;28;20278;-65
2022/09/14 08:36:55;;;;;;;;;;;16.60;99.90;;;;;;5065515;28;19920;-65
2022/09/14 08:39:20;;;;;;;;;;;16.80;99.90;;;;;;5065615;28;19919;-65
2022/09/14 08:41:53;;;;;;;;;;;16.90;99.90;;;;;;5063710;28;19912;-65
2022/09/14 08:44:22;;;;;;;;;;;16.90;99.90;;;;;;5062394;28;20386;-65
2022/09/14 08:46:58;;;;;;;;;;;16.90;99.90;;;;;;5061887;28;20224;-65
2022/09/14 08:49:42;;;;;;;;;;;16.90;99.90;;;;;;5064639;28;19921;-65
2022/09/14 08:52:34;;;;;;;;;;;16.90;99.90;;;;;;5039963;28;19932;-65
2022/09/14 08:55:19;;;;;;;;;;;17.10;99.90;;;;;;5063510;28;19923;-65
2022/09/14 08:57:47;;;;;;;;;;;17.00;99.90;;;;;;5068503;28;20000;-65
2022/09/14 09:00:17;;;;;;;;;;;17.10;99.90;;;;;;5067612;28;19913;-65
2022/09/14 09:02:46;;;;;;;;;;;17.20;99.90;;;;;;5073766;28;19931;-65
2022/09/14 09:05:14;;;;;;;;;;;17.30;99.90;;;;;;5073235;28;19958;-66
2022/09/14 09:07:55;;;;;;;;;;;17.30;99.90;;;;;;5073082;28;20267;-66
2022/09/14 09:10:21;;;;;;;;;;;17.30;99.90;;;;;;5075149;28;20023;-66
2022/09/14 09:12:52;;;;;;;;;;;17.20;99.90;;;;;;5074169;28;19916;-64
2022/09/14 09:15:41;;;;;;;;;;;17.00;99.90;;;;;;5077565;28;20016;-65
2022/09/14 09:18:08;;;;;;;;;;;17.00;99.90;;;;;;5073797;28;19948;-65
2022/09/14 09:20:36;;;;;;;;;;;17.00;99.90;;;;;;5073735;28;19912;-65
2022/09/14 09:23:11;;;;;;;;;;;17.00;99.90;;;;;;5071754;28;19912;-67
2022/09/14 09:25:59;;;;;;;;;;;16.80;99.90;;;;;;5064277;28;19913;-64
2022/09/14 09:28:25;;;;;;;;;;;16.70;99.90;;;;;;5056360;28;20327;-65
2022/09/14 09:30:52;;;;;;;;;;;16.60;99.90;;;;;;5073260;28;19913;-66
2022/09/14 09:33:21;;;;;;;;;;;16.50;99.90;;;;;;5068028;28;19912;-65
2022/09/14 09:35:48;;;;;;;;;;;16.50;99.90;;;;;;5071481;28;20345;-65
2022/09/14 09:38:14;;;;;;;;;;;16.40;99.90;;;;;;5066251;28;19919;-65
2022/09/14 09:40:43;;;;;;;;;;;16.30;99.90;;;;;;5047861;28;20371;-66
2022/09/14 09:43:17;;;;;;;;;;;16.40;99.90;;;;;;5072192;28;19923;-66
2022/09/14 09:45:56;;;;;;;;;;;16.40;99.90;;;;;;5049368;28;19920;-66
2022/09/14 09:48:37;;;;;;;;;;;16.30;99.90;;;;;;5065721;28;19928;-66
2022/09/14 09:51:08;;;;;;;;;;;16.40;99.90;;;;;;5071380;28;20398;-66
2022/09/14 09:53:36;;;;;;;;;;;16.40;99.90;;;;;;5066136;28;20004;-67
2022/09/14 09:56:02;;;;;;;;;;;16.30;99.90;;;;;;5067870;28;19919;-65
2022/09/14 09:58:29;;;;;;;;;;;16.30;99.90;;;;;;5051746;28;20000;-66
2022/09/14 10:01:06;;;;;;;;;;;16.40;99.90;;;;;;5069353;28;19913;-68
2022/09/14 10:03:36;;;;;;;;;;;16.50;99.90;;;;;;5068813;28;19916;-66
2022/09/14 10:06:09;;;;;;;;;;;16.50;99.90;;;;;;5069070;28;19933;-66
2022/09/14 10:08:45;;;;;;;;;;;16.50;99.90;;;;;;5070927;28;20380;-66
2022/09/14 10:11:27;;;;;;;;;;;16.60;99.90;;;;;;5048180;28;19916;-65
2022/09/14 10:13:53;;;;;;;;;;;16.70;99.90;;;;;;5067534;28;20367;-65
2022/09/14 10:16:19;;;;;;;;;;;16.60;99.90;;;;;;5067084;28;20017;-65
2022/09/14 10:18:46;;;;;;;;;;;16.60;99.90;;;;;;5067915;28;19967;-66
2022/09/14 10:21:12;;;;;;;;;;;16.70;99.90;;;;;;5065865;28;19919;-66
2022/09/14 10:23:38;;;;;;;;;;;16.70;99.90;;;;;;5069143;28;19991;-66
2022/09/14 10:26:13;;;;;;;;;;;16.80;99.90;;;;;;5069078;28;20007;-66
2022/09/14 10:28:41;;;;;;;;;;;17.00;99.90;;;;;;5063670;28;19925;-65
2022/09/14 10:31:07;;;;;;;;;;;17.30;99.90;;;;;;5049262;28;19975;-65
2022/09/14 10:33:34;;;;;;;;;;;17.30;99.90;;;;;;5065798;28;19995;-65
2022/09/14 10:36:18;;;;;;;;;;;17.40;99.90;;;;;;5067776;28;19931;-65
2022/09/14 10:38:59;;;;;;;;;;;17.60;99.90;;;;;;5070049;28;19938;-66
2022/09/14 10:41:38;;;;;;;;;;;17.90;99.90;;;;;;5049686;28;19975;-64
2022/09/14 10:44:21;;;;;;;;;;;18.00;99.90;;;;;;5066473;28;19920;-66
2022/09/14 10:46:55;;;;;;;;;;;18.30;99.90;;;;;;5067671;28;19912;-66
2022/09/14 10:49:20;;;;;;;;;;;18.50;99.90;;;;;;5073147;28;19928;-65
2022/09/14 10:51:46;;;;;;;;;;;18.90;99.90;;;;;;5055389;28;19913;-66
2022/09/14 10:54:31;;;;;;;;;;;19.20;99.90;;;;;;5065820;28;20323;-66
2022/09/14 10:57:05;;;;;;;;;;;19.40;99.90;;;;;;5031727;28;20065;-65
2022/09/14 10:59:37;;;;;;;;;;;19.60;99.90;;;;;;5072365;28;20014;-66
2022/09/14 11:02:21;;;;;;;;;;;19.70;99.90;;;;;;5073018;28;20012;-66
2022/09/14 11:04:50;;;;;;;;;;;19.70;99.90;;;;;;5053339;28;19913;-66
2022/09/14 11:07:23;;;;;;;;;;;19.70;99.90;;;;;;5071950;28;19920;-68
2022/09/14 11:09:54;;;;;;;;;;;19.90;99.90;;;;;;5073286;28;19928;-65
2022/09/14 11:12:50;;;;;;;;;;;20.00;99.90;;;;;;5073161;28;20601;-66
2022/09/14 11:15:15;;;;;;;;;;;20.30;99.90;;;;;;5010419;28;19914;-65
2022/09/14 11:17:49;;;;;;;;;;;20.60;99.90;;;;;;5072196;28;19908;-66
2022/09/14 11:20:20;;;;;;;;;;;20.70;99.90;;;;;;5071775;28;20284;-65
2022/09/14 11:22:46;;;;;;;;;;;20.90;99.90;;;;;;5068746;28;19956;-66
2022/09/14 11:25:19;;;;;;;;;;;20.80;99.90;;;;;;5072764;28;20326;-66
2022/09/14 11:27:54;;;;;;;;;;;21.00;99.90;;;;;;5068972;28;19919;-65
2022/09/14 11:30:21;;;;;;;;;;;21.20;99.90;;;;;;5062651;28;20006;-69
2022/09/14 11:32:48;;;;;;;;;;;21.20;99.90;;;;;;5053990;28;19916;-67
2022/09/14 11:35:17;;;;;;;;;;;20.90;99.90;;;;;;5072336;28;20016;-66
2022/09/14 11:37:59;;;;;;;;;;;20.80;99.90;;;;;;5072818;28;20342;-66
2022/09/14 11:40:25;;;;;;;;;;;20.90;99.90;;;;;;5071668;28;19908;-66
2022/09/14 11:42:50;;;;;;;;;;;21.00;99.90;;;;;;5072387;28;20002;-65
2022/09/14 11:45:21;;;;;;;;;;;21.20;99.90;;;;;;5072029;28;19913;-66
2022/09/14 11:47:52;;;;;;;;;;;21.30;99.90;;;;;;5070730;28;19919;-66
2022/09/14 11:50:19;;;;;;;;;;;21.30;99.90;;;;;;5054016;28;19920;-66
2022/09/14 11:52:46;;;;;;;;;;;21.30;99.90;;;;;;5071711;28;19919;-65
2022/09/14 11:55:16;;;;;;;;;;;21.20;99.90;;;;;;5072111;28;20369;-65
2022/09/14 11:57:43;;;;;;;;;;;21.00;99.90;;;;;;5072090;28;19919;-66
2022/09/14 12:00:24;;;;;;;;;;;20.80;99.90;;;;;;5070601;28;19909;-66
2022/09/14 12:02:58;;;;;;;;;;;20.50;99.40;;;;;;5068330;28;20260;-66
2022/09/14 12:05:28;;;;;;;;;;;20.30;97.60;;;;;;5063521;28;19981;-66
2022/09/14 12:08:02;;;;;;;;;;;20.30;96.50;;;;;;5064380;28;20283;-65
2022/09/14 12:10:28;;;;;;;;;;;20.60;95.10;;;;;;5046053;28;19920;-64
2022/09/14 12:12:53;;;;;;;;;;;20.70;96.30;;;;;;5064831;28;19967;-64
2022/09/14 12:15:32;;;;;;;;;;;20.80;96.60;;;;;;5064668;28;19951;-65
2022/09/14 12:18:04;;;;;;;;;;;20.90;94.30;;;;;;5063970;28;19962;-66
2022/09/14 12:20:36;;;;;;;;;;;20.70;94.90;;;;;;5063121;28;19995;-65
2022/09/14 12:23:19;;;;;;;;;;;20.60;94.70;;;;;;5068132;28;19923;-66
2022/09/14 12:26:04;;;;;;;;;;;20.60;93.10;;;;;;5067903;28;19924;-66
2022/09/14 12:28:38;;;;;;;;;;;20.80;92.50;;;;;;5063709;28;19966;-65
2022/09/14 12:31:04;;;;;;;;;;;20.80;93.30;;;;;;5062966;28;19955;-65
2022/09/14 12:33:32;;;;;;;;;;;20.50;93.50;;;;;;5043207;28;19960;-66
2022/09/14 12:36:01;;;;;;;;;;;20.60;93.30;;;;;;5044748;28;19913;-65
2022/09/14 12:38:30;;;;;;;;;;;20.60;92.70;;;;;;5064760;28;19932;-66
2022/09/14 12:40:55;;;;;;;;;;;20.70;91.80;;;;;;5061470;28;19916;-65
2022/09/14 12:43:27;;;;;;;;;;;20.80;90.20;;;;;;5066001;28;19916;-66
2022/09/14 12:45:59;;;;;;;;;;;20.80;90.50;;;;;;5064323;28;20389;-65
2022/09/14 12:48:43;;;;;;;;;;;21.10;88.90;;;;;;5065880;28;20064;-66
2022/09/14 12:51:10;;;;;;;;;;;21.20;89.70;;;;;;5062414;28;20149;-65
2022/09/14 12:53:36;;;;;;;;;;;21.00;90.10;;;;;;5064452;28;19935;-65
2022/09/14 12:56:03;;;;;;;;;;;20.80;90.70;;;;;;5066798;28;20410;-66
2022/09/14 12:58:41;;;;;;;;;;;20.90;91.60;;;;;;5063620;28;20346;-65
2022/09/14 13:01:07;;;;;;;;;;;21.00;90.10;;;;;;5061254;28;19912;-65
2022/09/14 13:03:43;;;;;;;;;;;21.00;86.40;;;;;;5067624;28;19923;-65
2022/09/14 13:06:12;;;;;;;;;;;20.80;89.20;;;;;;5062824;28;19913;-66
2022/09/14 13:08:41;;;;;;;;;;;20.70;89.20;;;;;;5065204;28;20041;-65
2022/09/14 13:11:08;;;;;;;;;;;20.70;90.00;;;;;;5063894;28;19958;-66
2022/09/14 13:13:34;;;;;;;;;;;20.60;90.20;;;;;;5066545;28;20024;-66
2022/09/14 13:16:02;;;;;;;;;;;20.60;90.20;;;;;;5048654;28;19912;-65
2022/09/14 13:18:35;;;;;;;;;;;20.60;90.00;;;;;;5065973;28;19924;-65
2022/09/14 13:21:02;;;;;;;;;;;20.50;90.20;;;;;;5059281;28;19912;-65
2022/09/14 13:23:35;;;;;;;;;;;20.50;89.20;;;;;;5062083;28;19939;-66
2022/09/14 13:26:08;;;;;;;;;;;20.50;89.40;;;;;;5067207;28;19912;-65
2022/09/14 13:28:34;;;;;;;;;;;20.60;88.30;;;;;;5065559;28;19920;-65
2022/09/14 13:31:00;;;;;;;;;;;20.70;90.80;;;;;;5064213;28;19913;-64
2022/09/14 13:33:27;;;;;;;;;;;20.80;89.30;;;;;;5064375;28;19966;-65
2022/09/14 13:35:54;;;;;;;;;;;20.80;88.60;;;;;;5064907;28;19923;-65
2022/09/14 13:38:24;;;;;;;;;;;21.00;89.00;;;;;;5066022;28;19956;-66
2022/09/14 13:40:51;;;;;;;;;;;21.00;86.00;;;;;;5060983;28;19978;-66
2022/09/14 13:43:17;;;;;;;;;;;20.90;84.20;;;;;;5038894;28;19920;-66
2022/09/14 13:45:43;;;;;;;;;;;20.90;86.10;;;;;;5072697;28;19916;-66
2022/09/14 13:48:11;;;;;;;;;;;21.00;85.80;;;;;;5068256;28;20383;-67
2022/09/14 13:50:36;;;;;;;;;;;21.00;79.20;;;;;;5069192;28;19912;-67
2022/09/14 13:53:02;;;;;;;;;;;20.90;80.70;;;;;;5070385;28;19912;-66
2022/09/14 13:55:41;;;;;;;;;;;20.90;82.10;;;;;;5067377;28;19916;-66
2022/09/14 13:58:20;;;;;;;;;;;21.00;82.60;;;;;;5068981;28;19995;-66
2022/09/14 14:00:45;;;;;;;;;;;20.90;84.10;;;;;;5066244;28;19913;-66
2022/09/14 14:03:18;;;;;;;;;;;21.00;84.20;;;;;;5071350;28;19987;-67
2022/09/14 14:05:44;;;;;;;;;;;21.00;84.80;;;;;;5068504;28;19919;-66
2022/09/14 14:08:39;;;;;;;;;;;21.00;84.70;;;;;;5066450;28;19929;-66
2022/09/14 14:11:05;;;;;;;;;;;21.10;86.50;;;;;;5044539;28;19917;-65
2022/09/14 14:13:34;;;;;;;;;;;21.20;83.30;;;;;;5051638;28;19913;-66
2022/09/14 14:16:20;;;;;;;;;;;21.20;82.10;;;;;;5049224;28;19913;-65
2022/09/14 14:18:53;;;;;;;;;;;21.10;83.70;;;;;;5066119;28;19913;-65
2022/09/14 14:21:21;;;;;;;;;;;21.20;84.00;;;;;;5066674;28;19941;-66
2022/09/14 14:23:48;;;;;;;;;;;21.10;81.60;;;;;;5069802;28;19959;-65
2022/09/14 14:26:16;;;;;;;;;;;21.20;82.20;;;;;;5066314;28;19919;-66